Nisshoumaru — JD3093 — position and weather

sailwx.info

Track history (hours):
 
Tides and Currents Weather Stations Pressure Air Temp Water Temp Dewpoint Dewpoint Depression Visibility Wind Speed Wind Dir Waves Ship Positions

Nisshoumaru

Last reported at 2017-Feb-20 00:33 UTC. Time now 2017-Feb-20 11:19 UTC.
Position N 35°30' E 139°54'.

Length 76 m; draft 4 m.

Type: Cargo ship. MMSI: 431001549.

Date/timePositionNaut miles runAvg speedWind from/ knotsBaromVisibWave heightAir tempDewpointWater temp
2017-Feb-20 00:33N 35°30' E 139°54'1212.4
2017-Feb-19 23:34N 35°20' E 139°45'1211.6
2017-Feb-19 22:33N 35°09' E 139°46'1212.3
2017-Feb-19 21:33N 34°60' E 139°35'34211.0
2017-Feb-18 14:33N 34°01' E 132°46'1312.7
2017-Feb-18 13:33N 33°52' E 132°35'1212.0
2017-Feb-18 12:33N 33°50' E 132°21'  
2017-Feb-13 09:21N 33°48' E 132°08'912.0
2017-Feb-13 08:33N 33°50' E 132°19'1312.8
2017-Feb-13 07:33N 33°53' E 132°33'1413.6
2017-Feb-13 06:33N 34°02' E 132°46'10211.0
2017-Feb-12 21:14N 34°04' E 134°50'  
Track history (hours):
 
Tides and Currents Weather Stations Pressure Air Temp Water Temp Dewpoint Dewpoint Depression Visibility Wind Speed Wind Dir Waves Ship Positions

Nisshoumaru

Last reported at 2017-Feb-20 00:33 UTC. Time now 2017-Feb-20 11:19 UTC.
Position N 35°30' E 139°54'.

Length 76 m; draft 4 m.

Type: Cargo ship. MMSI: 431001549.

Date/timePositionNaut miles runAvg speedWind from/ knotsBaromVisibWave heightAir tempDewpointWater temp
2017-Feb-20 00:33N 35°30' E 139°54'1212.4
2017-Feb-19 23:34N 35°20' E 139°45'1211.6
2017-Feb-19 22:33N 35°09' E 139°46'1212.3
2017-Feb-19 21:33N 34°60' E 139°35'34211.0
2017-Feb-18 14:33N 34°01' E 132°46'1312.7
2017-Feb-18 13:33N 33°52' E 132°35'1212.0
2017-Feb-18 12:33N 33°50' E 132°21'  
2017-Feb-13 09:21N 33°48' E 132°08'912.0
2017-Feb-13 08:33N 33°50' E 132°19'1312.8
2017-Feb-13 07:33N 33°53' E 132°33'1413.6
2017-Feb-13 06:33N 34°02' E 132°46'10211.0
2017-Feb-12 21:14N 34°04' E 134°50'  

Dump ship's entire track history